sensor_id;sensor_type;location;lat;lon;timestamp;P1;durP1;ratioP1;P2;durP2;ratioP2
25109;SDS011;13507;49.030;11.940;2023-02-15T08:38:36;9.48;;;7.65;;
25109;SDS011;13507;49.030;11.940;2023-02-15T08:39:58;7.65;;;6.88;;
25109;SDS011;13507;49.030;11.940;2023-02-15T08:41:22;17.40;;;5.82;;
25109;SDS011;13507;49.030;11.940;2023-02-15T08:42:45;6.05;;;5.55;;
25109;SDS011;13507;49.030;11.940;2023-02-15T08:45:30;5.40;;;4.90;;
25109;SDS011;13507;49.030;11.940;2023-02-15T08:46:51;5.30;;;4.80;;
25109;SDS011;13507;49.030;11.940;2023-02-15T08:48:12;5.80;;;4.80;;
25109;SDS011;13507;49.030;11.940;2023-02-15T08:49:36;4.38;;;3.97;;
25109;SDS011;13507;49.030;11.940;2023-02-15T08:51:04;4.40;;;4.05;;
25109;SDS011;13507;49.030;11.940;2023-02-15T08:52:25;4.75;;;4.03;;
25109;SDS011;13507;49.030;11.940;2023-02-15T08:53:50;4.18;;;3.70;;
25109;SDS011;13507;49.030;11.940;2023-02-15T08:55:12;3.55;;;3.25;;
25109;SDS011;13507;49.030;11.940;2023-02-15T08:59:17;3.88;;;3.13;;
25109;SDS011;13507;49.030;11.940;2023-02-15T09:00:39;4.38;;;3.10;;
25109;SDS011;13507;49.030;11.940;2023-02-15T09:02:03;3.03;;;2.80;;
25109;SDS011;13507;49.030;11.940;2023-02-15T09:03:24;3.35;;;2.80;;
25109;SDS011;13507;49.030;11.940;2023-02-15T09:06:07;2.80;;;2.60;;
25109;SDS011;13507;49.030;11.940;2023-02-15T09:07:31;3.75;;;2.60;;
25109;SDS011;13507;49.030;11.940;2023-02-15T09:08:55;3.03;;;2.58;;
25109;SDS011;13507;49.030;11.940;2023-02-15T09:10:17;2.58;;;2.35;;
25109;SDS011;13507;49.030;11.940;2023-02-15T09:11:42;2.40;;;2.20;;
25109;SDS011;13507;49.030;11.940;2023-02-15T09:13:07;2.20;;;2.10;;
25109;SDS011;13507;49.030;11.940;2023-02-15T09:14:29;3.58;;;2.05;;
25109;SDS011;13507;49.030;11.940;2023-02-15T09:15:50;2.28;;;2.17;;
25109;SDS011;13507;49.030;11.940;2023-02-15T09:17:18;2.05;;;1.90;;
25109;SDS011;13507;49.030;11.940;2023-02-15T09:20:01;1.80;;;1.70;;
25109;SDS011;13507;49.030;11.940;2023-02-15T09:21:22;2.20;;;2.00;;
25109;SDS011;13507;49.030;11.940;2023-02-15T09:22:45;2.10;;;2.00;;
25109;SDS011;13507;49.030;11.940;2023-02-15T09:25:32;3.28;;;2.20;;
25109;SDS011;13507;49.030;11.940;2023-02-15T09:26:55;1.80;;;1.70;;
25109;SDS011;13507;49.030;11.940;2023-02-15T09:28:16;3.38;;;1.63;;
25109;SDS011;13507;49.030;11.940;2023-02-15T09:29:41;1.85;;;1.75;;
25109;SDS011;13507;49.030;11.940;2023-02-15T09:32:27;1.55;;;1.45;;
25109;SDS011;13507;49.030;11.940;2023-02-15T09:33:51;2.72;;;1.52;;
25109;SDS011;13507;49.030;11.940;2023-02-15T09:35:15;2.15;;;2.00;;
25109;SDS011;13507;49.030;11.940;2023-02-15T09:36:37;2.30;;;1.95;;
25109;SDS011;13507;49.030;11.940;2023-02-15T09:38:00;1.98;;;1.88;;
25109;SDS011;13507;49.030;11.940;2023-02-15T09:39:24;1.90;;;1.80;;
25109;SDS011;13507;49.030;11.940;2023-02-15T09:40:49;2.95;;;1.67;;
25109;SDS011;13507;49.030;11.940;2023-02-15T09:42:27;2.00;;;1.65;;
25109;SDS011;13507;49.030;11.940;2023-02-15T09:44:07;2.95;;;2.03;;
25109;SDS011;13507;49.030;11.940;2023-02-15T09:45:42;1.80;;;1.60;;
25109;SDS011;13507;49.030;11.940;2023-02-15T09:47:34;1.85;;;1.70;;
25109;SDS011;13507;49.030;11.940;2023-02-15T09:49:17;2.75;;;1.77;;
25109;SDS011;13507;49.030;11.940;2023-02-15T09:50:53;1.85;;;1.75;;
25109;SDS011;13507;49.030;11.940;2023-02-15T09:54:27;2.13;;;1.80;;
25109;SDS011;13507;49.030;11.940;2023-02-15T09:55:57;1.85;;;1.75;;
25109;SDS011;13507;49.030;11.940;2023-02-15T09:57:29;2.13;;;1.98;;
25109;SDS011;13507;49.030;11.940;2023-02-15T09:58:58;3.25;;;1.80;;
25109;SDS011;13507;49.030;11.940;2023-02-15T10:00:33;1.55;;;1.45;;
25109;SDS011;13507;49.030;11.940;2023-02-15T10:02:08;3.60;;;1.80;;
25109;SDS011;13507;49.030;11.940;2023-02-15T10:03:58;1.98;;;1.85;;
25109;SDS011;13507;49.030;11.940;2023-02-15T10:05:38;5.70;;;1.60;;
25109;SDS011;13507;49.030;11.940;2023-02-15T10:07:12;3.90;;;1.73;;
25109;SDS011;13507;49.030;11.940;2023-02-15T10:08:48;2.72;;;1.70;;
25109;SDS011;13507;49.030;11.940;2023-02-15T10:10:24;5.72;;;2.10;;
25109;SDS011;13507;49.030;11.940;2023-02-15T10:12:01;2.35;;;1.60;;
25109;SDS011;13507;49.030;11.940;2023-02-15T10:13:33;2.25;;;1.52;;
25109;SDS011;13507;49.030;11.940;2023-02-15T10:16:53;1.53;;;1.43;;
25109;SDS011;13507;49.030;11.940;2023-02-15T10:18:29;1.92;;;1.73;;
25109;SDS011;13507;49.030;11.940;2023-02-15T10:20:13;2.25;;;2.05;;
25109;SDS011;13507;49.030;11.940;2023-02-15T10:21:48;1.65;;;1.55;;
25109;SDS011;13507;49.030;11.940;2023-02-15T10:23:26;3.33;;;1.40;;
25109;SDS011;13507;49.030;11.940;2023-02-15T10:25:01;1.80;;;1.70;;
25109;SDS011;13507;49.030;11.940;2023-02-15T10:26:36;2.70;;;1.70;;
25109;SDS011;13507;49.030;11.940;2023-02-15T10:28:04;2.05;;;1.75;;
25109;SDS011;13507;49.030;11.940;2023-02-15T10:29:31;1.60;;;1.50;;
25109;SDS011;13507;49.030;11.940;2023-02-15T10:30:57;2.50;;;1.60;;
25109;SDS011;13507;49.030;11.940;2023-02-15T10:32:29;1.77;;;1.52;;
25109;SDS011;13507;49.030;11.940;2023-02-15T10:34:07;2.25;;;1.30;;
25109;SDS011;13507;49.030;11.940;2023-02-15T10:35:37;1.90;;;1.50;;
25109;SDS011;13507;49.030;11.940;2023-02-15T10:37:16;1.88;;;1.20;;
25109;SDS011;13507;49.030;11.940;2023-02-15T10:38:51;2.67;;;1.50;;
25109;SDS011;13507;49.030;11.940;2023-02-15T10:40:23;1.60;;;1.50;;
25109;SDS011;13507;49.030;11.940;2023-02-15T10:41:53;2.30;;;1.20;;
25109;SDS011;13507;49.030;11.940;2023-02-15T10:45:03;2.22;;;1.52;;
25109;SDS011;13507;49.030;11.940;2023-02-15T10:48:49;1.75;;;1.63;;
25109;SDS011;13507;49.030;11.940;2023-02-15T10:52:16;1.60;;;1.50;;
25109;SDS011;13507;49.030;11.940;2023-02-15T10:53:52;1.65;;;1.23;;
25109;SDS011;13507;49.030;11.940;2023-02-15T10:55:24;2.00;;;1.50;;
25109;SDS011;13507;49.030;11.940;2023-02-15T10:56:59;1.77;;;1.67;;
25109;SDS011;13507;49.030;11.940;2023-02-15T10:58:29;1.75;;;1.60;;
25109;SDS011;13507;49.030;11.940;2023-02-15T11:00:05;1.60;;;1.50;;
25109;SDS011;13507;49.030;11.940;2023-02-15T11:01:37;1.45;;;1.35;;
25109;SDS011;13507;49.030;11.940;2023-02-15T11:03:05;1.70;;;1.60;;
25109;SDS011;13507;49.030;11.940;2023-02-15T11:04:41;4.25;;;2.78;;
25109;SDS011;13507;49.030;11.940;2023-02-15T11:06:09;6.22;;;3.65;;
25109;SDS011;13507;49.030;11.940;2023-02-15T11:07:35;15.10;;;9.25;;
25109;SDS011;13507;49.030;11.940;2023-02-15T11:09:02;32.90;;;19.35;;
25109;SDS011;13507;49.030;11.940;2023-02-15T11:10:28;42.85;;;25.40;;
25109;SDS011;13507;49.030;11.940;2023-02-15T11:11:54;37.30;;;21.77;;
25109;SDS011;13507;49.030;11.940;2023-02-15T11:13:20;20.65;;;14.40;;
25109;SDS011;13507;49.030;11.940;2023-02-15T11:14:49;13.07;;;9.13;;
25109;SDS011;13507;49.030;11.940;2023-02-15T11:16:16;19.75;;;14.27;;
25109;SDS011;13507;49.030;11.940;2023-02-15T11:17:45;17.23;;;13.63;;
25109;SDS011;13507;49.030;11.940;2023-02-15T11:19:16;20.55;;;13.85;;
25109;SDS011;13507;49.030;11.940;2023-02-15T11:20:43;20.33;;;12.40;;
25109;SDS011;13507;49.030;11.940;2023-02-15T11:22:10;18.65;;;13.60;;
25109;SDS011;13507;49.030;11.940;2023-02-15T11:23:32;19.52;;;13.32;;
25109;SDS011;13507;49.030;11.940;2023-02-15T11:25:00;19.50;;;12.52;;
25109;SDS011;13507;49.030;11.940;2023-02-15T11:26:25;18.15;;;12.60;;
25109;SDS011;13507;49.030;11.940;2023-02-15T11:27:53;18.38;;;12.68;;
25109;SDS011;13507;49.030;11.940;2023-02-15T11:29:18;14.50;;;10.85;;
25109;SDS011;13507;49.030;11.940;2023-02-15T11:30:47;20.77;;;10.70;;
25109;SDS011;13507;49.030;11.940;2023-02-15T11:32:15;18.38;;;11.98;;
25109;SDS011;13507;49.030;11.940;2023-02-15T11:33:44;17.17;;;11.23;;
25109;SDS011;13507;49.030;11.940;2023-02-15T11:35:17;17.58;;;10.27;;
25109;SDS011;13507;49.030;11.940;2023-02-15T11:36:45;16.23;;;10.55;;
25109;SDS011;13507;49.030;11.940;2023-02-15T11:38:12;16.92;;;11.00;;
25109;SDS011;13507;49.030;11.940;2023-02-15T11:39:38;19.52;;;10.50;;
25109;SDS011;13507;49.030;11.940;2023-02-15T11:41:01;14.90;;;9.68;;
25109;SDS011;13507;49.030;11.940;2023-02-15T11:42:25;18.27;;;9.80;;
25109;SDS011;13507;49.030;11.940;2023-02-15T11:43:56;14.10;;;10.25;;
25109;SDS011;13507;49.030;11.940;2023-02-15T11:45:26;15.45;;;9.80;;
25109;SDS011;13507;49.030;11.940;2023-02-15T11:46:49;14.50;;;10.10;;
25109;SDS011;13507;49.030;11.940;2023-02-15T11:48:11;15.18;;;9.40;;
25109;SDS011;13507;49.030;11.940;2023-02-15T11:49:34;11.93;;;9.38;;
25109;SDS011;13507;49.030;11.940;2023-02-15T11:50:58;12.93;;;10.13;;
25109;SDS011;13507;49.030;11.940;2023-02-15T11:52:21;14.43;;;9.20;;
25109;SDS011;13507;49.030;11.940;2023-02-15T11:53:43;15.35;;;10.23;;
25109;SDS011;13507;49.030;11.940;2023-02-15T11:55:18;15.48;;;10.77;;
25109;SDS011;13507;49.030;11.940;2023-02-15T11:56:42;17.25;;;10.02;;
25109;SDS011;13507;49.030;11.940;2023-02-15T11:58:05;17.05;;;10.48;;
25109;SDS011;13507;49.030;11.940;2023-02-15T11:59:37;15.13;;;9.23;;
25109;SDS011;13507;49.030;11.940;2023-02-15T12:01:08;14.40;;;9.18;;
25109;SDS011;13507;49.030;11.940;2023-02-15T12:02:35;13.05;;;9.02;;
25109;SDS011;13507;49.030;11.940;2023-02-15T12:04:01;12.85;;;9.32;;
25109;SDS011;13507;49.030;11.940;2023-02-15T12:05:29;15.90;;;9.55;;
25109;SDS011;13507;49.030;11.940;2023-02-15T12:06:51;12.00;;;8.63;;
25109;SDS011;13507;49.030;11.940;2023-02-15T12:08:21;14.27;;;8.77;;
25109;SDS011;13507;49.030;11.940;2023-02-15T12:09:45;11.27;;;8.77;;
25109;SDS011;13507;49.030;11.940;2023-02-15T12:11:12;14.25;;;8.57;;
25109;SDS011;13507;49.030;11.940;2023-02-15T12:12:37;12.30;;;9.27;;
25109;SDS011;13507;49.030;11.940;2023-02-15T12:14:03;11.65;;;8.13;;
25109;SDS011;13507;49.030;11.940;2023-02-15T12:15:31;14.23;;;8.88;;
25109;SDS011;13507;49.030;11.940;2023-02-15T12:16:55;11.30;;;7.90;;
25109;SDS011;13507;49.030;11.940;2023-02-15T12:18:21;10.98;;;8.00;;
25109;SDS011;13507;49.030;11.940;2023-02-15T12:19:54;13.70;;;7.53;;
25109;SDS011;13507;49.030;11.940;2023-02-15T12:21:27;13.75;;;7.32;;
25109;SDS011;13507;49.030;11.940;2023-02-15T12:22:54;12.05;;;7.82;;
25109;SDS011;13507;49.030;11.940;2023-02-15T12:24:21;9.23;;;6.72;;
25109;SDS011;13507;49.030;11.940;2023-02-15T12:25:49;10.20;;;7.00;;
25109;SDS011;13507;49.030;11.940;2023-02-15T12:27:14;17.88;;;16.13;;
25109;SDS011;13507;49.030;11.940;2023-02-15T12:28:38;13.80;;;12.30;;
25109;SDS011;13507;49.030;11.940;2023-02-15T12:30:06;13.30;;;10.77;;
25109;SDS011;13507;49.030;11.940;2023-02-15T12:31:43;12.02;;;9.20;;
25109;SDS011;13507;49.030;11.940;2023-02-15T12:33:13;11.20;;;8.32;;
25109;SDS011;13507;49.030;11.940;2023-02-15T12:36:09;11.10;;;7.25;;
25109;SDS011;13507;49.030;11.940;2023-02-15T12:37:33;12.00;;;7.32;;
25109;SDS011;13507;49.030;11.940;2023-02-15T12:39:05;11.40;;;7.25;;
25109;SDS011;13507;49.030;11.940;2023-02-15T12:40:37;8.50;;;6.90;;
25109;SDS011;13507;49.030;11.940;2023-02-15T12:41:59;9.13;;;6.70;;
25109;SDS011;13507;49.030;11.940;2023-02-15T12:43:24;12.60;;;6.75;;
25109;SDS011;13507;49.030;11.940;2023-02-15T12:44:53;11.40;;;6.68;;
25109;SDS011;13507;49.030;11.940;2023-02-15T12:46:21;7.95;;;6.35;;
25109;SDS011;13507;49.030;11.940;2023-02-15T12:47:48;11.23;;;6.22;;
25109;SDS011;13507;49.030;11.940;2023-02-15T12:49:29;9.07;;;5.97;;
25109;SDS011;13507;49.030;11.940;2023-02-15T12:50:52;9.25;;;5.85;;
25109;SDS011;13507;49.030;11.940;2023-02-15T12:52:29;8.88;;;6.25;;
25109;SDS011;13507;49.030;11.940;2023-02-15T12:53:50;7.38;;;5.95;;
25109;SDS011;13507;49.030;11.940;2023-02-15T12:55:19;7.93;;;5.70;;
25109;SDS011;13507;49.030;11.940;2023-02-15T12:56:45;9.00;;;5.43;;
25109;SDS011;13507;49.030;11.940;2023-02-15T12:58:15;7.30;;;5.90;;
25109;SDS011;13507;49.030;11.940;2023-02-15T12:59:47;8.75;;;5.28;;
25109;SDS011;13507;49.030;11.940;2023-02-15T13:01:12;6.35;;;5.57;;
25109;SDS011;13507;49.030;11.940;2023-02-15T13:02:36;8.43;;;5.22;;
25109;SDS011;13507;49.030;11.940;2023-02-15T13:05:49;6.03;;;5.18;;
25109;SDS011;13507;49.030;11.940;2023-02-15T13:07:12;10.73;;;5.45;;
25109;SDS011;13507;49.030;11.940;2023-02-15T13:08:34;11.52;;;5.45;;
25109;SDS011;13507;49.030;11.940;2023-02-15T13:10:00;6.75;;;5.25;;
25109;SDS011;13507;49.030;11.940;2023-02-15T13:11:23;5.82;;;5.05;;
25109;SDS011;13507;49.030;11.940;2023-02-15T13:12:49;7.75;;;5.43;;
25109;SDS011;13507;49.030;11.940;2023-02-15T13:14:17;5.72;;;4.60;;
25109;SDS011;13507;49.030;11.940;2023-02-15T13:15:40;5.53;;;4.90;;
25109;SDS011;13507;49.030;11.940;2023-02-15T13:17:09;6.43;;;4.90;;
25109;SDS011;13507;49.030;11.940;2023-02-15T13:18:34;5.50;;;4.63;;
25109;SDS011;13507;49.030;11.940;2023-02-15T13:19:58;5.03;;;4.63;;
25109;SDS011;13507;49.030;11.940;2023-02-15T13:21:28;6.15;;;4.47;;
25109;SDS011;13507;49.030;11.940;2023-02-15T13:22:59;7.00;;;5.07;;
25109;SDS011;13507;49.030;11.940;2023-02-15T13:24:27;5.20;;;4.47;;
25109;SDS011;13507;49.030;11.940;2023-02-15T13:25:50;5.65;;;4.70;;
25109;SDS011;13507;49.030;11.940;2023-02-15T13:27:12;7.93;;;4.90;;
25109;SDS011;13507;49.030;11.940;2023-02-15T13:28:37;6.63;;;4.40;;
25109;SDS011;13507;49.030;11.940;2023-02-15T13:30:03;8.02;;;5.05;;
25109;SDS011;13507;49.030;11.940;2023-02-15T13:31:39;8.27;;;5.18;;
25109;SDS011;13507;49.030;11.940;2023-02-15T13:33:02;6.45;;;4.60;;
25109;SDS011;13507;49.030;11.940;2023-02-15T13:34:25;5.72;;;4.65;;
25109;SDS011;13507;49.030;11.940;2023-02-15T13:35:55;5.65;;;3.92;;
25109;SDS011;13507;49.030;11.940;2023-02-15T13:37:31;7.68;;;4.53;;
25109;SDS011;13507;49.030;11.940;2023-02-15T13:39:08;4.88;;;4.32;;
25109;SDS011;13507;49.030;11.940;2023-02-15T13:40:41;9.15;;;4.93;;
25109;SDS011;13507;49.030;11.940;2023-02-15T13:42:14;7.05;;;4.53;;
25109;SDS011;13507;49.030;11.940;2023-02-15T13:43:45;4.50;;;4.10;;
25109;SDS011;13507;49.030;11.940;2023-02-15T13:45:21;4.75;;;4.35;;
25109;SDS011;13507;49.030;11.940;2023-02-15T13:46:57;7.70;;;5.20;;
25109;SDS011;13507;49.030;11.940;2023-02-15T13:48:28;5.15;;;4.05;;
25109;SDS011;13507;49.030;11.940;2023-02-15T13:50:17;7.68;;;4.53;;
25109;SDS011;13507;49.030;11.940;2023-02-15T13:51:50;5.72;;;3.97;;
25109;SDS011;13507;49.030;11.940;2023-02-15T13:53:27;5.97;;;4.82;;
25109;SDS011;13507;49.030;11.940;2023-02-15T13:55:06;4.20;;;3.80;;
25109;SDS011;13507;49.030;11.940;2023-02-15T13:56:49;4.68;;;3.95;;
25109;SDS011;13507;49.030;11.940;2023-02-15T14:00:22;4.93;;;4.30;;
25109;SDS011;13507;49.030;11.940;2023-02-15T14:01:53;5.78;;;4.07;;
25109;SDS011;13507;49.030;11.940;2023-02-15T14:05:22;5.03;;;3.80;;
25109;SDS011;13507;49.030;11.940;2023-02-15T14:06:58;5.10;;;4.35;;
25109;SDS011;13507;49.030;11.940;2023-02-15T14:08:45;6.07;;;4.72;;
25109;SDS011;13507;49.030;11.940;2023-02-15T14:10:25;5.00;;;4.28;;
25109;SDS011;13507;49.030;11.940;2023-02-15T14:11:58;5.38;;;4.45;;
25109;SDS011;13507;49.030;11.940;2023-02-15T14:13:39;4.60;;;4.07;;
25109;SDS011;13507;49.030;11.940;2023-02-15T14:15:22;5.60;;;4.35;;
25109;SDS011;13507;49.030;11.940;2023-02-15T14:16:51;4.60;;;4.03;;
25109;SDS011;13507;49.030;11.940;2023-02-15T14:18:29;4.28;;;3.88;;
25109;SDS011;13507;49.030;11.940;2023-02-15T14:20:04;4.60;;;4.20;;
25109;SDS011;13507;49.030;11.940;2023-02-15T14:21:38;4.47;;;3.92;;
25109;SDS011;13507;49.030;11.940;2023-02-15T14:23:07;4.82;;;3.92;;
25109;SDS011;13507;49.030;11.940;2023-02-15T14:24:39;5.85;;;4.28;;
25109;SDS011;13507;49.030;11.940;2023-02-15T14:26:06;4.40;;;4.00;;
25109;SDS011;13507;49.030;11.940;2023-02-15T14:27:39;4.50;;;4.10;;
25109;SDS011;13507;49.030;11.940;2023-02-15T14:29:07;4.07;;;3.67;;
25109;SDS011;13507;49.030;11.940;2023-02-15T14:30:38;4.63;;;4.22;;
25109;SDS011;13507;49.030;11.940;2023-02-15T14:32:04;5.63;;;4.00;;
25109;SDS011;13507;49.030;11.940;2023-02-15T14:33:32;4.30;;;3.90;;
25109;SDS011;13507;49.030;11.940;2023-02-15T14:34:58;3.72;;;3.42;;
25109;SDS011;13507;49.030;11.940;2023-02-15T14:36:21;4.65;;;4.25;;
25109;SDS011;13507;49.030;11.940;2023-02-15T14:37:46;4.47;;;4.07;;
25109;SDS011;13507;49.030;11.940;2023-02-15T14:39:17;4.18;;;3.88;;
25109;SDS011;13507;49.030;11.940;2023-02-15T14:40:54;4.90;;;4.10;;
25109;SDS011;13507;49.030;11.940;2023-02-15T14:42:23;4.45;;;3.78;;
25109;SDS011;13507;49.030;11.940;2023-02-15T14:43:54;8.15;;;4.00;;
25109;SDS011;13507;49.030;11.940;2023-02-15T14:45:26;4.63;;;3.83;;
25109;SDS011;13507;49.030;11.940;2023-02-15T14:46:54;6.30;;;3.97;;
25109;SDS011;13507;49.030;11.940;2023-02-15T14:48:24;4.38;;;3.97;;
25109;SDS011;13507;49.030;11.940;2023-02-15T14:49:54;6.50;;;4.25;;
25109;SDS011;13507;49.030;11.940;2023-02-15T14:53:14;4.85;;;3.50;;
25109;SDS011;13507;49.030;11.940;2023-02-15T14:54:55;4.40;;;3.80;;
25109;SDS011;13507;49.030;11.940;2023-02-15T14:56:24;5.03;;;4.30;;
25109;SDS011;13507;49.030;11.940;2023-02-15T14:57:55;3.75;;;3.40;;
25109;SDS011;13507;49.030;11.940;2023-02-15T14:59:18;5.97;;;3.78;;
25109;SDS011;13507;49.030;11.940;2023-02-15T15:00:44;5.68;;;4.13;;
25109;SDS011;13507;49.030;11.940;2023-02-15T15:03:33;8.50;;;4.25;;
25109;SDS011;13507;49.030;11.940;2023-02-15T15:04:56;4.90;;;4.50;;
25109;SDS011;13507;49.030;11.940;2023-02-15T15:06:24;5.03;;;4.53;;
25109;SDS011;13507;49.030;11.940;2023-02-15T15:07:48;6.72;;;4.38;;
25109;SDS011;13507;49.030;11.940;2023-02-15T15:09:19;4.28;;;3.92;;
25109;SDS011;13507;49.030;11.940;2023-02-15T15:10:46;4.53;;;3.77;;
25109;SDS011;13507;49.030;11.940;2023-02-15T15:12:35;5.60;;;3.17;;
25109;SDS011;13507;49.030;11.940;2023-02-15T15:13:59;4.07;;;3.67;;
25109;SDS011;13507;49.030;11.940;2023-02-15T15:15:32;8.10;;;3.45;;
25109;SDS011;13507;49.030;11.940;2023-02-15T15:17:05;4.70;;;4.10;;
25109;SDS011;13507;49.030;11.940;2023-02-15T15:18:43;4.30;;;3.85;;
25109;SDS011;13507;49.030;11.940;2023-02-15T15:20:09;5.25;;;3.60;;
25109;SDS011;13507;49.030;11.940;2023-02-15T15:25:03;3.72;;;3.40;;
25109;SDS011;13507;49.030;11.940;2023-02-15T15:26:27;7.88;;;3.72;;
25109;SDS011;13507;49.030;11.940;2023-02-15T15:27:54;4.63;;;3.33;;
25109;SDS011;13507;49.030;11.940;2023-02-15T15:29:16;4.07;;;3.50;;
25109;SDS011;13507;49.030;11.940;2023-02-15T15:31:03;4.45;;;3.88;;
25109;SDS011;13507;49.030;11.940;2023-02-15T15:32:30;4.10;;;3.70;;
25109;SDS011;13507;49.030;11.940;2023-02-15T15:35:55;4.53;;;3.83;;
25109;SDS011;13507;49.030;11.940;2023-02-15T15:37:45;4.05;;;3.65;;
25109;SDS011;13507;49.030;11.940;2023-02-15T15:39:37;3.92;;;3.53;;
25109;SDS011;13507;49.030;11.940;2023-02-15T15:41:32;4.80;;;3.55;;
25109;SDS011;13507;49.030;11.940;2023-02-15T15:45:08;3.95;;;3.60;;
25109;SDS011;13507;49.030;11.940;2023-02-15T15:46:58;4.18;;;3.78;;
25109;SDS011;13507;49.030;11.940;2023-02-15T15:48:31;4.10;;;3.80;;
25109;SDS011;13507;49.030;11.940;2023-02-15T15:49:57;3.72;;;3.42;;
25109;SDS011;13507;49.030;11.940;2023-02-15T15:51:23;7.03;;;4.13;;
25109;SDS011;13507;49.030;11.940;2023-02-15T15:52:49;4.20;;;3.55;;
25109;SDS011;13507;49.030;11.940;2023-02-15T15:54:14;3.90;;;3.50;;
25109;SDS011;13507;49.030;11.940;2023-02-15T15:55:40;5.30;;;3.83;;
25109;SDS011;13507;49.030;11.940;2023-02-15T15:57:05;5.65;;;3.40;;
25109;SDS011;13507;49.030;11.940;2023-02-15T15:58:35;7.95;;;3.75;;
25109;SDS011;13507;49.030;11.940;2023-02-15T15:59:56;5.63;;;3.55;;
25109;SDS011;13507;49.030;11.940;2023-02-15T16:01:27;3.90;;;3.53;;
25109;SDS011;13507;49.030;11.940;2023-02-15T16:02:50;4.72;;;3.75;;
25109;SDS011;13507;49.030;11.940;2023-02-15T16:04:14;3.88;;;3.58;;
25109;SDS011;13507;49.030;11.940;2023-02-15T16:05:44;5.15;;;4.10;;
25109;SDS011;13507;49.030;11.940;2023-02-15T16:07:20;5.78;;;3.90;;
25109;SDS011;13507;49.030;11.940;2023-02-15T16:08:46;6.03;;;4.15;;
25109;SDS011;13507;49.030;11.940;2023-02-15T16:10:20;5.28;;;3.75;;
25109;SDS011;13507;49.030;11.940;2023-02-15T16:11:45;4.95;;;3.30;;
25109;SDS011;13507;49.030;11.940;2023-02-15T16:13:11;3.70;;;3.40;;
25109;SDS011;13507;49.030;11.940;2023-02-15T16:14:35;4.05;;;3.33;;
25109;SDS011;13507;49.030;11.940;2023-02-15T16:15:58;5.30;;;3.50;;
25109;SDS011;13507;49.030;11.940;2023-02-15T16:17:23;5.28;;;3.22;;
25109;SDS011;13507;49.030;11.940;2023-02-15T16:18:49;6.40;;;4.30;;
25109;SDS011;13507;49.030;11.940;2023-02-15T16:20:14;4.47;;;4.07;;
25109;SDS011;13507;49.030;11.940;2023-02-15T16:21:41;4.57;;;3.60;;
25109;SDS011;13507;49.030;11.940;2023-02-15T16:24:35;5.40;;;3.70;;
25109;SDS011;13507;49.030;11.940;2023-02-15T16:26:05;5.95;;;3.65;;
25109;SDS011;13507;49.030;11.940;2023-02-15T16:27:38;5.40;;;3.92;;
25109;SDS011;13507;49.030;11.940;2023-02-15T16:29:00;4.88;;;3.70;;
25109;SDS011;13507;49.030;11.940;2023-02-15T16:30:25;7.63;;;3.60;;
25109;SDS011;13507;49.030;11.940;2023-02-15T16:31:57;8.25;;;3.50;;
25109;SDS011;13507;49.030;11.940;2023-02-15T16:33:33;10.27;;;4.43;;
25109;SDS011;13507;49.030;11.940;2023-02-15T16:34:57;6.57;;;4.35;;
25109;SDS011;13507;49.030;11.940;2023-02-15T16:36:21;8.93;;;4.60;;
25109;SDS011;13507;49.030;11.940;2023-02-15T16:37:44;12.55;;;5.38;;
25109;SDS011;13507;49.030;11.940;2023-02-15T16:39:07;12.65;;;4.72;;
25109;SDS011;13507;49.030;11.940;2023-02-15T16:40:40;18.02;;;5.82;;
25109;SDS011;13507;49.030;11.940;2023-02-15T16:42:08;10.32;;;5.00;;
25109;SDS011;13507;49.030;11.940;2023-02-15T16:43:31;12.20;;;5.68;;
25109;SDS011;13507;49.030;11.940;2023-02-15T16:44:54;9.75;;;5.35;;
25109;SDS011;13507;49.030;11.940;2023-02-15T16:46:23;11.90;;;5.40;;
25109;SDS011;13507;49.030;11.940;2023-02-15T16:47:48;10.10;;;5.15;;
25109;SDS011;13507;49.030;11.940;2023-02-15T16:49:18;9.18;;;5.22;;
25109;SDS011;13507;49.030;11.940;2023-02-15T16:50:46;14.93;;;5.30;;
25109;SDS011;13507;49.030;11.940;2023-02-15T16:52:11;12.93;;;5.40;;
25109;SDS011;13507;49.030;11.940;2023-02-15T16:53:39;15.30;;;5.43;;
25109;SDS011;13507;49.030;11.940;2023-02-15T16:55:04;12.57;;;5.68;;
25109;SDS011;13507;49.030;11.940;2023-02-15T16:56:29;10.02;;;5.25;;
25109;SDS011;13507;49.030;11.940;2023-02-15T16:57:51;9.73;;;5.15;;
25109;SDS011;13507;49.030;11.940;2023-02-15T16:59:21;12.05;;;5.57;;
25109;SDS011;13507;49.030;11.940;2023-02-15T17:00:57;11.98;;;5.40;;
25109;SDS011;13507;49.030;11.940;2023-02-15T17:02:23;14.48;;;5.40;;
25109;SDS011;13507;49.030;11.940;2023-02-15T17:04:11;11.88;;;5.47;;
25109;SDS011;13507;49.030;11.940;2023-02-15T17:05:43;13.48;;;5.32;;
25109;SDS011;13507;49.030;11.940;2023-02-15T17:07:13;9.02;;;4.93;;
25109;SDS011;13507;49.030;11.940;2023-02-15T17:08:41;11.10;;;5.25;;
25109;SDS011;13507;49.030;11.940;2023-02-15T17:11:45;14.63;;;4.93;;
25109;SDS011;13507;49.030;11.940;2023-02-15T17:13:09;8.38;;;5.00;;
25109;SDS011;13507;49.030;11.940;2023-02-15T17:14:31;9.02;;;4.90;;
25109;SDS011;13507;49.030;11.940;2023-02-15T17:17:50;34.20;;;25.60;;
25109;SDS011;13507;49.030;11.940;2023-02-15T17:20:36;17.63;;;12.38;;
25109;SDS011;13507;49.030;11.940;2023-02-15T17:22:02;17.67;;;10.27;;
25109;SDS011;13507;49.030;11.940;2023-02-15T17:23:28;13.80;;;6.95;;
25109;SDS011;13507;49.030;11.940;2023-02-15T17:24:57;15.00;;;6.57;;
25109;SDS011;13507;49.030;11.940;2023-02-15T17:26:21;8.48;;;5.75;;
25109;SDS011;13507;49.030;11.940;2023-02-15T17:27:49;8.93;;;5.82;;
25109;SDS011;13507;49.030;11.940;2023-02-15T17:29:18;9.52;;;5.70;;
25109;SDS011;13507;49.030;11.940;2023-02-15T17:30:44;12.63;;;5.80;;
25109;SDS011;13507;49.030;11.940;2023-02-15T17:32:05;11.80;;;5.82;;
25109;SDS011;13507;49.030;11.940;2023-02-15T17:33:36;10.75;;;5.68;;
25109;SDS011;13507;49.030;11.940;2023-02-15T17:35:06;8.52;;;5.03;;
25109;SDS011;13507;49.030;11.940;2023-02-15T17:36:29;7.78;;;4.80;;
25109;SDS011;13507;49.030;11.940;2023-02-15T17:38:04;8.10;;;5.20;;
25109;SDS011;13507;49.030;11.940;2023-02-15T17:39:30;7.65;;;5.20;;
25109;SDS011;13507;49.030;11.940;2023-02-15T17:40:53;11.25;;;5.47;;
25109;SDS011;13507;49.030;11.940;2023-02-15T17:42:16;8.48;;;4.90;;
25109;SDS011;13507;49.030;11.940;2023-02-15T17:43:37;11.30;;;5.10;;
25109;SDS011;13507;49.030;11.940;2023-02-15T17:44:59;7.75;;;5.45;;
25109;SDS011;13507;49.030;11.940;2023-02-15T17:46:20;7.15;;;5.00;;
25109;SDS011;13507;49.030;11.940;2023-02-15T17:47:42;7.35;;;5.13;;
25109;SDS011;13507;49.030;11.940;2023-02-15T17:49:03;7.32;;;5.45;;
25109;SDS011;13507;49.030;11.940;2023-02-15T17:50:28;6.53;;;4.95;;
25109;SDS011;13507;49.030;11.940;2023-02-15T17:51:49;9.25;;;5.22;;
25109;SDS011;13507;49.030;11.940;2023-02-15T17:53:16;7.47;;;5.25;;
25109;SDS011;13507;49.030;11.940;2023-02-15T17:54:41;6.82;;;4.70;;
25109;SDS011;13507;49.030;11.940;2023-02-15T17:56:02;7.30;;;5.38;;
25109;SDS011;13507;49.030;11.940;2023-02-15T17:57:24;8.63;;;4.80;;
25109;SDS011;13507;49.030;11.940;2023-02-15T17:58:45;8.05;;;5.47;;
25109;SDS011;13507;49.030;11.940;2023-02-15T18:00:12;8.52;;;4.82;;
25109;SDS011;13507;49.030;11.940;2023-02-15T18:01:34;9.68;;;5.82;;
25109;SDS011;13507;49.030;11.940;2023-02-15T18:03:01;6.03;;;4.80;;
25109;SDS011;13507;49.030;11.940;2023-02-15T18:04:26;7.88;;;4.90;;
25109;SDS011;13507;49.030;11.940;2023-02-15T18:07:08;8.35;;;4.82;;